Arbutus, MD

3:13 PM EDT on March 26, 2015 (GMT -0400)
Relay / Arbutus | Change Station
CLOSE
Current Station
Personal Weather Station
Location: Relay, MD
Elevation: 221 ft
Nearby Weather Stations

Elev 221 ft 39.24 °N, 76.71 °W | Updated 3 minutes ago

Overcast
Overcast
68.8 °F
Feels Like 68.8 °F
N
10.0
Wind Variable Wind from SSW
Gusts 17.0 mph

Today
High -- | Low -- °F
--% Chance of Precip.
Yesterday
High -- | Low -- °F
Precip. -- in
7:01 AM 7:24 PM
Waxing Crescent, 45% visible
Pressure 29.67 in
Visibility 10.0 miles
Clouds Mostly Cloudy 2200 ft
Mostly Cloudy 10000 ft
Mostly Cloudy 25000 ft
Dew Point 62 °F
Humidity 78%
Rainfall 0.10 in
Snow Depth Not available.
UV 4 out of 12
Pollen 7.60 out of 12
Air Quality Not available.
Flu Activity Not available.
METAR KBWI 261854Z 20011G18KT 10SM BKN022 BKN100 BKN250 21/15 A2967 RMK AO2 SLP045 BKN022 V SCT T02060150

More Conditions Fewer Conditions

Pressure 29.67 in
Visibility 10.0 miles
Clouds Mostly Cloudy 2200 ft
Mostly Cloudy 10000 ft
Mostly Cloudy 25000 ft
Dew Point 62 °F
Humidity 78%
Rainfall 0.10 in
Snow Depth Not available.
UV 4 out of 12
Pollen 7.60 out of 12
Air Quality Not available.
Flu Activity Not available.
METAR KBWI 261854Z 20011G18KT 10SM BKN022 BKN100 BKN250 21/15 A2967 RMK AO2 SLP045 BKN022 V SCT T02060150

More Conditions Fewer Conditions

10-Day Weather Forecast

Almanac

Astronomy

Mar. 26, 2015 Rise Set
Actual Time
Civil Twilight
Nautical Twilight
Astronomical Twilight
Moon
Length of Visible Light
Length of Day
Tomorrow will be .
, % of the Moon is Illuminated

Today's Extremes

State Highs State Lows

Community

WunderPhotos

Upload Photos

1,808,606 photos uploaded!

WunderBlogs® & News

Nearby

Air Quality

  Air Quality AQ Index Pollutant
Not available.

Snow Depth

Station Depth Elevation

Earthquake Activity

City Distance Mag. Time & Date
Minimum magnitude displayed is 2.5.

Coastal Water Temperatures

Place Temperature

Stations

Nearby Weather Stations

Station Location Temp. Windchill Dew Point Humidity Wind Precip. Elev Updated Type